createdAt,value
2023-05-01T12:16:31.004Z,97986.25
2023-05-01T12:18:59.704Z,97988.38
2023-05-01T12:21:28.341Z,97988.50
2023-05-01T12:23:58.345Z,97991.51
2023-05-01T12:26:26.524Z,97988.17
2023-05-01T12:28:59.277Z,97981.80
2023-05-01T12:31:28.806Z,97979.02
2023-05-01T12:34:08.215Z,97977.98
2023-05-01T12:36:37.796Z,97980.06
2023-05-01T12:39:14.365Z,97977.23
2023-05-01T12:41:45.544Z,97978.21
2023-05-01T12:44:22.752Z,97974.14
2023-05-01T12:47:06.208Z,97974.27
2023-05-01T12:49:37.355Z,97978.40
2023-05-01T12:52:07.870Z,97970.09
2023-05-01T12:54:44.051Z,97971.00
2023-05-01T12:57:17.942Z,97967.83
2023-05-01T12:59:47.440Z,97965.02
2023-05-01T13:02:18.451Z,97966.87
2023-05-01T13:04:49.573Z,97966.66
2023-05-01T13:07:19.617Z,97962.04
2023-05-01T13:09:59.269Z,97965.20
2023-05-01T13:12:28.771Z,97967.60
2023-05-01T13:14:57.510Z,97968.98
2023-05-01T13:17:27.069Z,97966.30
2023-05-01T13:20:05.687Z,97970.02
2023-05-01T13:22:36.657Z,97964.69
2023-05-01T13:25:20.878Z,97961.69
2023-05-01T13:27:51.371Z,97961.05
2023-05-01T13:30:30.888Z,97965.64
2023-05-01T13:32:59.521Z,97960.50
2023-05-01T13:35:28.113Z,97961.23
2023-05-01T13:37:56.532Z,97966.13
2023-05-01T13:40:27.883Z,97968.34
2023-05-01T13:42:56.150Z,97966.66
2023-05-01T13:45:25.061Z,97965.35
2023-05-01T13:47:53.431Z,97964.52
2023-05-01T13:50:21.708Z,97956.64
2023-05-01T13:52:50.214Z,97957.10
2023-05-01T13:55:20.906Z,97960.77
2023-05-01T13:57:49.610Z,97964.42
2023-05-01T14:00:19.271Z,97961.27
2023-05-01T14:02:49.585Z,97957.62
2023-05-01T14:05:27.860Z,97958.96
2023-05-01T14:07:59.749Z,97960.32
2023-05-01T14:10:29.727Z,97953.19
2023-05-01T14:12:59.279Z,97953.29
2023-05-01T14:15:28.917Z,97953.66
2023-05-01T14:17:59.102Z,97956.77
2023-05-01T14:20:27.402Z,97955.91
2023-05-01T14:22:55.568Z,97950.98
2023-05-01T14:25:30.712Z,97944.86
2023-05-01T14:28:01.569Z,97942.64
2023-05-01T14:30:37.455Z,97946.77
2023-05-01T14:33:08.355Z,97945.35
2023-05-01T14:35:38.165Z,97944.02
2023-05-01T14:38:17.791Z,97947.73
2023-05-01T14:40:46.533Z,97948.86
2023-05-01T14:43:19.357Z,97947.27
2023-05-01T14:45:49.799Z,97952.75
2023-05-01T14:48:34.723Z,97950.45
2023-05-01T14:51:11.807Z,97945.70
2023-05-01T14:53:43.910Z,97945.36
2023-05-01T14:56:12.810Z,97948.45
2023-05-01T14:58:41.771Z,97940.11
2023-05-01T15:01:10.474Z,97940.02
2023-05-01T15:03:41.201Z,97938.61
2023-05-01T15:06:10.300Z,97935.88
2023-05-01T15:08:38.881Z,97942.76
2023-05-01T15:11:07.788Z,97940.06
2023-05-01T15:13:36.559Z,97941.81
2023-05-01T15:16:05.765Z,97938.37
2023-05-01T15:18:35.374Z,97943.66
2023-05-01T15:21:04.262Z,97941.73
2023-05-01T15:23:32.834Z,97937.38
2023-05-01T15:26:01.640Z,97938.43
2023-05-01T15:28:30.290Z,97940.09
2023-05-01T15:30:59.005Z,97941.98
2023-05-01T15:33:27.492Z,97939.14
2023-05-01T15:35:55.730Z,97937.11
2023-05-01T15:38:24.347Z,97937.14
2023-05-01T15:40:52.624Z,97941.21
2023-05-01T15:43:22.456Z,97941.04
2023-05-01T15:45:51.588Z,97943.17
2023-05-01T15:48:19.921Z,97939.61
2023-05-01T15:50:49.182Z,97944.03
2023-05-01T16:04:21.986Z,97936.14
2023-05-01T16:06:50.437Z,97940.02
2023-05-01T16:09:19.247Z,97941.09
2023-05-01T16:11:47.499Z,97939.11
2023-05-01T16:14:15.713Z,97943.84
2023-05-01T16:16:44.021Z,97945.39
2023-05-01T16:19:16.759Z,97945.10
2023-05-01T16:21:45.317Z,97947.98
2023-05-01T16:24:13.832Z,97950.81
2023-05-01T16:26:42.109Z,97951.27
2023-05-01T16:29:10.882Z,97952.09
2023-05-01T16:31:47.074Z,97956.21
2023-05-01T16:34:20.055Z,97959.25
2023-05-01T16:36:48.163Z,97959.85
2023-05-01T16:39:19.239Z,97958.80
2023-05-01T16:41:50.290Z,97962.31
2023-05-01T16:44:20.529Z,97962.21
2023-05-01T16:46:57.800Z,97965.58
2023-05-01T16:49:27.704Z,97964.61
2023-05-01T16:51:59.465Z,97961.04
2023-05-01T16:54:36.360Z,97961.59
2023-05-01T16:57:05.040Z,97960.75
2023-05-01T16:59:34.397Z,97959.05
2023-05-01T17:02:02.864Z,97960.02
2023-05-01T17:04:31.292Z,97963.33
2023-05-01T17:06:59.773Z,97964.94
2023-05-01T17:09:28.099Z,97964.34
2023-05-01T17:11:57.560Z,97960.95
2023-05-01T17:14:28.973Z,97960.23
2023-05-01T17:17:00.358Z,97961.37
2023-05-01T17:19:28.871Z,97967.29
2023-05-01T17:21:58.270Z,97968.87
2023-05-01T17:24:27.675Z,97971.15
2023-05-01T17:26:57.211Z,97970.15
2023-05-01T17:29:28.034Z,97972.30
2023-05-01T17:31:56.356Z,97977.36
2023-05-01T17:34:24.875Z,97976.58
2023-05-01T17:36:56.563Z,97977.05
2023-05-01T17:39:27.779Z,97980.34
2023-05-01T17:41:56.057Z,97982.36
2023-05-01T17:44:24.233Z,97983.06
2023-05-01T17:46:52.510Z,97986.52
2023-05-01T17:49:20.785Z,97988.23
2023-05-01T17:51:49.013Z,97991.72
2023-05-01T17:54:17.653Z,97994.86
2023-05-01T17:56:45.831Z,98000.56
2023-05-01T17:59:14.441Z,98008.86
2023-05-01T18:01:42.741Z,98006.52
2023-05-01T18:04:11.513Z,98005.61
2023-05-01T18:06:41.826Z,98005.45
2023-05-01T18:09:10.934Z,98005.44
2023-05-01T18:11:39.097Z,98009.55
2023-05-01T18:14:07.454Z,98009.22
2023-05-01T18:16:35.771Z,98011.80
2023-05-01T18:19:04.399Z,98013.27
2023-05-01T18:21:33.105Z,98016.36
2023-05-01T18:24:03.292Z,98014.63
2023-05-01T18:26:33.041Z,98019.08
2023-05-01T18:29:02.527Z,98022.08
2023-05-01T18:31:30.746Z,98024.27
2023-05-01T18:33:58.953Z,98023.64
2023-05-01T18:36:27.445Z,98023.20
2023-05-01T18:38:56.371Z,98027.28
2023-05-01T18:41:25.763Z,98029.89
2023-05-01T18:43:57.123Z,98033.80
2023-05-01T18:46:26.236Z,98038.84
2023-05-01T18:48:54.663Z,98042.84
2023-05-01T18:51:22.819Z,98049.47
2023-05-01T18:53:50.993Z,98048.23
2023-05-01T18:56:19.148Z,98053.48
2023-05-01T18:58:47.266Z,98055.24
2023-05-01T19:01:15.508Z,98052.98
2023-05-01T19:03:43.962Z,98061.99
2023-05-01T19:06:12.260Z,98062.09
2023-05-01T19:08:40.856Z,98067.06
2023-05-01T19:11:09.033Z,98070.38
2023-05-01T19:13:37.789Z,98071.30
2023-05-01T19:16:06.166Z,98073.34
2023-05-01T19:18:36.798Z,98074.92
2023-05-01T19:21:05.577Z,98072.55
2023-05-01T19:23:35.619Z,98074.97
2023-05-01T19:26:06.232Z,98074.67
2023-05-01T19:28:35.246Z,98076.00
2023-05-01T19:31:03.813Z,98077.56
2023-05-01T19:33:32.158Z,98080.03
2023-05-01T19:36:00.510Z,98082.55
2023-05-01T19:38:29.577Z,98080.30
2023-05-01T19:40:57.876Z,98079.25
2023-05-01T19:43:26.121Z,98076.02
2023-05-01T19:45:54.257Z,98075.56
2023-05-01T19:48:22.777Z,98079.23
2023-05-01T19:50:51.872Z,98081.64
2023-05-01T19:53:21.294Z,98078.71
2023-05-01T19:55:50.581Z,98078.38
2023-05-01T19:58:18.849Z,98076.71
2023-05-01T20:00:47.052Z,98075.30
2023-05-01T20:03:16.294Z,98077.91
2023-05-01T20:05:44.660Z,98077.77
2023-05-01T20:08:13.033Z,98078.33
2023-05-01T20:10:42.000Z,98076.91
2023-05-01T20:13:10.955Z,98079.42
2023-05-01T20:15:39.894Z,98077.06
2023-05-01T20:18:08.266Z,98074.55
2023-05-01T20:20:36.428Z,98076.95
2023-05-01T20:23:15.711Z,98076.65
2023-05-01T20:25:45.385Z,98077.01
2023-05-01T20:28:15.018Z,98079.02
2023-05-01T20:30:46.076Z,98081.31
2023-05-01T20:33:14.399Z,98080.09
2023-05-01T20:35:42.736Z,98081.42
2023-05-01T20:38:11.248Z,98086.36
2023-05-01T20:40:40.881Z,98090.88
2023-05-01T20:43:09.388Z,98098.40
2023-05-01T20:45:37.675Z,98099.53
2023-05-01T20:48:06.132Z,98103.90
2023-05-01T20:50:35.546Z,98098.52
2023-05-01T20:53:04.223Z,98101.44
2023-05-01T20:55:32.395Z,98105.44
2023-05-01T20:58:00.613Z,98106.42
2023-05-01T21:00:28.759Z,98109.19
2023-05-01T21:02:59.014Z,98109.02
2023-05-01T21:05:27.898Z,98109.30
2023-05-01T21:07:58.279Z,98113.30
2023-05-01T21:10:26.410Z,98113.05
2023-05-01T21:12:57.925Z,98116.30
2023-05-01T21:15:27.685Z,98117.52
2023-05-01T21:17:55.930Z,98120.42
2023-05-01T21:20:35.551Z,98122.88
2023-05-01T21:23:04.657Z,98122.36
2023-05-01T21:25:33.226Z,98124.09
2023-05-01T21:28:03.652Z,98127.77
2023-05-01T21:30:36.773Z,98131.90
2023-05-01T21:33:06.668Z,98136.29
2023-05-01T21:35:34.894Z,98135.45
2023-05-01T21:38:04.247Z,98136.48
2023-05-01T21:40:39.881Z,98132.01
2023-05-01T21:43:09.025Z,98136.60
2023-05-01T21:45:42.622Z,98139.34
2023-05-01T21:48:15.035Z,98136.95
2023-05-01T21:50:43.367Z,98144.78
2023-05-01T21:53:11.516Z,98144.33
2023-05-01T21:55:39.717Z,98143.67
2023-05-01T21:58:07.956Z,98145.40
2023-05-01T22:00:37.660Z,98146.34
2023-05-01T22:03:07.317Z,98143.77
2023-05-01T22:05:35.571Z,98146.37
2023-05-01T22:08:03.846Z,98143.61
2023-05-01T22:10:32.184Z,98145.84
2023-05-01T22:13:00.373Z,98144.50
2023-05-01T22:15:28.620Z,98149.31
2023-05-01T22:17:56.904Z,98153.91
2023-05-01T22:20:25.202Z,98155.02
2023-05-01T22:22:53.425Z,98157.07
2023-05-01T22:25:21.785Z,98155.52
2023-05-01T22:27:49.943Z,98157.64
2023-05-01T22:30:18.540Z,98154.56
2023-05-01T22:32:46.718Z,98151.86
2023-05-01T22:35:15.048Z,98154.38
2023-05-01T22:37:43.192Z,98155.83
2023-05-01T22:40:11.895Z,98154.81
2023-05-01T22:42:40.068Z,98159.30
2023-05-01T22:45:10.555Z,98160.33
2023-05-01T22:47:38.984Z,98157.55
2023-05-01T22:50:07.709Z,98164.31
2023-05-01T22:52:36.528Z,98157.81
2023-05-01T22:55:05.561Z,98159.04
2023-05-01T22:57:33.745Z,98159.97
2023-05-01T23:00:02.152Z,98160.89
2023-05-01T23:02:30.853Z,98156.34
2023-05-01T23:04:59.243Z,98157.59
2023-05-01T23:07:27.393Z,98154.48
2023-05-01T23:09:56.438Z,98153.15
2023-05-01T23:12:25.843Z,98149.70
2023-05-01T23:14:55.434Z,98148.59
2023-05-01T23:17:25.692Z,98146.42
2023-05-01T23:19:54.806Z,98145.20
2023-05-01T23:22:23.499Z,98141.05
2023-05-01T23:24:51.709Z,98144.91
2023-05-01T23:27:22.314Z,98148.09
2023-05-01T23:29:59.028Z,98147.20
2023-05-01T23:32:31.969Z,98148.45
2023-05-01T23:35:11.667Z,98152.57
2023-05-01T23:37:39.803Z,98151.27
2023-05-01T23:40:09.570Z,98154.46
2023-05-01T23:42:39.372Z,98152.14
2023-05-01T23:45:09.543Z,98157.41
2023-05-01T23:47:39.043Z,98151.23
2023-05-01T23:50:08.045Z,98149.62
2023-05-01T23:52:36.317Z,98153.61
2023-05-01T23:55:04.920Z,98152.94
2023-05-01T23:57:33.067Z,98152.95
